createdAt,value
2022-08-21T00:01:19.177Z,39.36
2022-08-21T00:03:57.445Z,39.15
2022-08-21T00:06:28.953Z,39.22
2022-08-21T00:09:06.319Z,39.17
2022-08-21T00:11:44.085Z,39.63
2022-08-21T00:14:20.611Z,39.63
2022-08-21T00:16:51.728Z,39.44
2022-08-21T00:19:25.923Z,39.46
2022-08-21T00:21:57.388Z,39.37
2022-08-21T00:24:31.270Z,39.64
2022-08-21T00:27:05.893Z,39.69
2022-08-21T00:29:36.957Z,39.80
2022-08-21T00:32:09.893Z,39.43
2022-08-21T00:34:43.924Z,39.60
2022-08-21T00:37:27.332Z,39.94
2022-08-21T00:39:58.456Z,40.04
2022-08-21T00:42:31.308Z,39.90
2022-08-21T00:45:06.814Z,39.98
2022-08-21T00:47:37.628Z,39.95
2022-08-21T00:50:11.951Z,40.14
2022-08-21T00:52:52.641Z,40.00
2022-08-21T00:55:28.400Z,40.27
2022-08-21T00:58:02.774Z,40.46
2022-08-21T01:00:38.982Z,40.29
2022-08-21T01:03:10.943Z,40.23
2022-08-21T01:06:06.505Z,40.10
2022-08-21T01:08:37.445Z,40.46
2022-08-21T01:11:29.102Z,40.73
2022-08-21T01:14:08.468Z,40.41
2022-08-21T01:16:41.173Z,40.41
2022-08-21T01:19:19.264Z,40.58
2022-08-21T01:21:50.318Z,40.66
2022-08-21T01:24:21.208Z,40.74
2022-08-21T01:26:52.209Z,40.93
2022-08-21T01:29:29.637Z,40.99
2022-08-21T01:32:08.628Z,40.90
2022-08-21T01:34:44.581Z,41.10
2022-08-21T01:37:30.092Z,41.12
2022-08-21T01:40:01.987Z,41.07
2022-08-21T01:42:32.853Z,41.22
2022-08-21T01:45:05.496Z,41.32
2022-08-21T01:47:47.269Z,41.34
2022-08-21T01:50:21.476Z,41.37
2022-08-21T01:52:57.052Z,41.45
2022-08-21T01:55:31.292Z,41.63
2022-08-21T01:58:04.432Z,41.76
2022-08-21T02:00:41.736Z,41.77
2022-08-21T02:03:26.394Z,42.06
2022-08-21T02:06:09.499Z,42.14
2022-08-21T02:08:46.120Z,42.17
2022-08-21T02:11:22.097Z,42.45
2022-08-21T02:13:53.979Z,42.49
2022-08-21T02:16:31.332Z,42.72
2022-08-21T02:19:05.583Z,42.81
2022-08-21T02:21:41.141Z,42.81
2022-08-21T02:24:13.887Z,42.93
2022-08-21T02:26:51.311Z,42.98
2022-08-21T02:29:24.940Z,43.08
2022-08-21T02:31:57.028Z,43.24
2022-08-21T02:34:30.997Z,43.27
2022-08-21T02:37:03.685Z,43.36
2022-08-21T02:39:36.336Z,43.53
2022-08-21T02:42:14.128Z,43.71
2022-08-21T02:44:51.616Z,43.65
2022-08-21T02:47:23.730Z,43.77
2022-08-21T02:49:54.583Z,43.94
2022-08-21T02:52:25.901Z,43.98
2022-08-21T02:55:00.773Z,44.07
2022-08-21T02:57:37.916Z,44.23
2022-08-21T03:00:17.615Z,44.24
2022-08-21T03:03:02.150Z,44.29
2022-08-21T03:05:33.786Z,44.39
2022-08-21T03:08:08.132Z,44.46
2022-08-21T03:10:43.396Z,44.62
2022-08-21T03:13:15.692Z,44.66
2022-08-21T03:15:50.515Z,44.82
2022-08-21T03:18:22.933Z,44.70
2022-08-21T03:21:03.264Z,44.82
2022-08-21T03:23:36.162Z,44.86
2022-08-21T03:26:09.245Z,44.91
2022-08-21T03:28:41.412Z,45.00
2022-08-21T03:31:15.535Z,45.12
2022-08-21T03:33:51.981Z,45.24
2022-08-21T03:36:22.809Z,45.30
2022-08-21T03:38:54.917Z,45.13
2022-08-21T03:41:28.104Z,45.38
2022-08-21T03:44:01.378Z,45.48
2022-08-21T03:46:33.127Z,45.56
2022-08-21T03:49:13.221Z,45.57
2022-08-21T03:51:59.781Z,45.70
2022-08-21T03:54:32.519Z,45.57
2022-08-21T03:57:17.112Z,45.66
2022-08-21T03:59:48.570Z,45.79
2022-08-21T04:02:20.744Z,45.78
2022-08-21T04:04:53.858Z,45.90
2022-08-21T04:07:25.057Z,45.96
2022-08-21T04:09:56.392Z,46.01
2022-08-21T04:12:28.953Z,46.03
2022-08-21T04:15:05.572Z,46.17
2022-08-21T04:17:41.267Z,46.23
2022-08-21T04:23:02.674Z,46.38
2022-08-21T04:25:36.524Z,46.36
2022-08-21T04:28:13.435Z,46.44
2022-08-21T04:30:44.603Z,46.58
2022-08-21T04:33:17.448Z,46.66
2022-08-21T04:36:08.797Z,46.56
2022-08-21T04:38:44.629Z,46.75
2022-08-21T04:41:25.055Z,46.77
2022-08-21T04:44:07.008Z,46.90
2022-08-21T04:46:41.753Z,46.99
2022-08-21T04:49:17.832Z,46.91
2022-08-21T04:51:49.704Z,46.97
2022-08-21T04:54:27.160Z,47.09
2022-08-21T04:57:04.737Z,47.11
2022-08-21T04:59:41.622Z,47.14
2022-08-21T05:02:15.263Z,47.12
2022-08-21T05:04:51.545Z,47.06
2022-08-21T05:07:42.235Z,46.94
2022-08-21T05:10:16.124Z,46.89
2022-08-21T05:12:47.233Z,47.06
2022-08-21T05:15:22.790Z,47.11
2022-08-21T05:18:00.689Z,47.09
2022-08-21T05:20:38.353Z,47.18
2022-08-21T05:23:14.933Z,47.01
2022-08-21T05:25:46.056Z,47.31
2022-08-21T05:28:28.918Z,47.30
2022-08-21T05:31:02.861Z,47.27
2022-08-21T05:33:44.111Z,47.22
2022-08-21T05:36:17.030Z,47.15
2022-08-21T05:38:51.157Z,47.11
2022-08-21T05:41:27.737Z,47.06
2022-08-21T05:44:01.342Z,47.08
2022-08-21T05:46:34.729Z,47.10
2022-08-21T05:49:09.968Z,47.18
2022-08-21T05:51:46.201Z,47.03
2022-08-21T05:54:21.991Z,47.18
2022-08-21T05:56:55.043Z,47.10
2022-08-21T05:59:29.183Z,47.17
2022-08-21T06:02:06.094Z,47.17
2022-08-21T06:04:42.273Z,47.20
2022-08-21T06:07:23.063Z,47.20
2022-08-21T06:10:01.249Z,47.15
2022-08-21T06:12:34.445Z,47.18
2022-08-21T06:15:08.892Z,47.14
2022-08-21T06:17:39.767Z,47.08
2022-08-21T06:20:13.690Z,47.00
2022-08-21T06:22:48.739Z,46.88
2022-08-21T06:25:22.597Z,47.13
2022-08-21T06:27:53.277Z,47.01
2022-08-21T06:30:27.156Z,46.88
2022-08-21T06:33:03.944Z,46.77
2022-08-21T06:35:40.453Z,46.75
2022-08-21T06:38:12.575Z,46.70
2022-08-21T06:40:44.010Z,46.51
2022-08-21T06:43:23.129Z,46.47
2022-08-21T06:46:10.708Z,46.33
2022-08-21T06:48:48.393Z,46.44
2022-08-21T06:51:22.077Z,46.50
2022-08-21T06:53:56.908Z,46.27
2022-08-21T06:56:34.477Z,46.06
2022-08-21T06:59:06.764Z,45.49
2022-08-21T07:01:50.618Z,45.76
2022-08-21T07:04:22.845Z,45.70
2022-08-21T07:06:59.693Z,45.38
2022-08-21T07:09:30.640Z,45.01
2022-08-21T07:12:04.749Z,45.13
2022-08-21T07:14:44.292Z,44.71
2022-08-21T07:17:18.320Z,44.58
2022-08-21T07:19:52.591Z,44.45
2022-08-21T07:22:30.065Z,44.15
2022-08-21T07:25:05.968Z,44.01
2022-08-21T07:27:42.433Z,43.70
2022-08-21T07:30:26.579Z,43.48
2022-08-21T07:33:01.727Z,43.09
2022-08-21T07:35:36.229Z,42.87
2022-08-21T07:38:12.817Z,42.92
2022-08-21T07:40:47.648Z,42.59
2022-08-21T07:43:22.949Z,42.65
2022-08-21T07:45:55.970Z,42.32
2022-08-21T07:48:31.093Z,42.45
2022-08-21T07:51:05.388Z,41.95
2022-08-21T07:53:49.410Z,41.78
2022-08-21T07:56:23.748Z,41.80
2022-08-21T07:58:58.642Z,41.48
2022-08-21T08:01:30.729Z,41.57
2022-08-21T08:04:05.096Z,41.26
2022-08-21T08:06:35.840Z,40.98
2022-08-21T08:09:09.963Z,40.86
2022-08-21T08:11:44.736Z,40.73
2022-08-21T08:14:16.700Z,40.50
2022-08-21T08:16:49.118Z,40.41
2022-08-21T08:19:22.769Z,40.50
2022-08-21T08:21:58.047Z,40.29
2022-08-21T08:24:29.302Z,40.06
2022-08-21T08:27:02.357Z,40.02
2022-08-21T08:29:34.823Z,39.70
2022-08-21T08:32:07.542Z,39.26
2022-08-21T08:34:44.389Z,39.18
2022-08-21T08:37:16.489Z,39.22
2022-08-21T08:39:52.312Z,39.14
2022-08-21T08:42:32.628Z,38.62
2022-08-21T08:45:06.705Z,38.36
2022-08-21T08:47:39.116Z,38.12
2022-08-21T08:50:15.442Z,38.16
2022-08-21T08:52:50.188Z,37.98
2022-08-21T08:55:27.145Z,37.62
2022-08-21T08:58:01.881Z,37.30
2022-08-21T09:00:36.903Z,37.46
2022-08-21T09:03:13.871Z,36.98
2022-08-21T09:05:45.459Z,36.78
2022-08-21T09:08:23.227Z,36.54
2022-08-21T09:11:00.715Z,36.19
2022-08-21T09:13:36.589Z,36.25
2022-08-21T09:16:11.187Z,36.14
2022-08-21T09:18:46.732Z,35.70
2022-08-21T09:21:28.220Z,34.92
2022-08-21T09:24:00.505Z,34.83
2022-08-21T09:26:33.591Z,34.70
2022-08-21T09:29:06.573Z,34.61
2022-08-21T09:31:39.730Z,34.22
2022-08-21T09:34:12.390Z,33.88
2022-08-21T09:36:47.741Z,33.59
2022-08-21T09:46:28.837Z,32.63
2022-08-21T09:49:03.601Z,32.38
2022-08-21T09:51:39.687Z,32.05
2022-08-21T09:54:16.907Z,31.73
2022-08-21T09:57:15.011Z,31.59
2022-08-21T09:59:46.686Z,31.27
2022-08-21T10:02:25.443Z,31.65
2022-08-21T10:04:57.498Z,31.13
2022-08-21T10:07:28.902Z,30.91
2022-08-21T10:10:03.486Z,30.71
2022-08-21T10:12:36.000Z,30.71
2022-08-21T10:15:12.875Z,30.79
2022-08-21T10:17:47.332Z,30.64
2022-08-21T10:20:23.530Z,30.47
2022-08-21T10:23:02.340Z,30.37
2022-08-21T10:25:38.305Z,30.39
2022-08-21T10:28:13.575Z,30.23
2022-08-21T10:30:53.682Z,30.25
2022-08-21T10:33:33.907Z,30.24
2022-08-21T10:36:07.688Z,30.20
2022-08-21T10:39:17.852Z,30.09
2022-08-21T10:42:04.806Z,30.11
2022-08-21T10:44:40.259Z,30.04
2022-08-21T10:47:16.277Z,30.00
2022-08-21T10:49:50.205Z,29.78
2022-08-21T10:52:54.675Z,29.71
2022-08-21T10:55:30.784Z,29.54
2022-08-21T10:58:05.244Z,29.16
2022-08-21T11:00:41.697Z,28.87
2022-08-21T11:03:15.009Z,29.06
2022-08-21T11:05:51.585Z,28.95
2022-08-21T11:08:29.154Z,28.79
2022-08-21T11:11:04.473Z,28.39
2022-08-21T11:13:42.439Z,28.27
2022-08-21T11:16:18.421Z,27.84
2022-08-21T11:19:02.004Z,27.97
2022-08-21T11:21:39.445Z,27.65
2022-08-21T11:24:32.137Z,27.51
2022-08-21T11:27:04.723Z,27.44
2022-08-21T11:29:36.038Z,27.26
2022-08-21T11:32:22.925Z,27.29
2022-08-21T11:34:59.404Z,27.14
2022-08-21T11:37:33.594Z,27.12
2022-08-21T11:40:06.707Z,27.05
2022-08-21T11:42:43.403Z,27.11
2022-08-21T11:45:21.931Z,27.04
2022-08-21T11:47:58.479Z,27.11
2022-08-21T11:50:36.059Z,27.01
2022-08-21T11:53:14.486Z,26.87
2022-08-21T11:55:46.696Z,26.73
2022-08-21T11:58:23.093Z,26.70
2022-08-21T12:00:57.616Z,26.87
2022-08-21T12:03:33.248Z,26.75
2022-08-21T12:06:11.624Z,26.72
2022-08-21T12:08:47.977Z,26.78
2022-08-21T12:11:30.899Z,26.75
2022-08-21T12:14:20.551Z,26.86
2022-08-21T12:16:55.596Z,26.82
2022-08-21T12:19:33.331Z,26.94
2022-08-21T12:22:15.018Z,27.03
2022-08-21T12:24:46.987Z,27.08
2022-08-21T12:27:32.976Z,27.16
2022-08-21T12:30:05.651Z,27.16
2022-08-21T12:32:49.214Z,27.28
2022-08-21T12:35:28.789Z,27.50
2022-08-21T12:38:01.640Z,27.60
2022-08-21T12:40:41.463Z,27.79
2022-08-21T12:43:20.613Z,27.72
2022-08-21T12:45:55.660Z,27.56
2022-08-21T12:48:32.101Z,27.58
2022-08-21T12:51:11.638Z,27.57
2022-08-21T12:53:47.175Z,27.54
2022-08-21T12:56:27.039Z,27.54
2022-08-21T12:59:00.662Z,27.85
2022-08-21T13:01:41.736Z,28.15
2022-08-21T13:04:15.903Z,28.10
2022-08-21T13:06:49.438Z,28.34
2022-08-21T13:09:29.103Z,27.97
2022-08-21T13:12:03.449Z,27.95
2022-08-21T13:14:38.343Z,28.46
2022-08-21T13:17:25.676Z,28.30
2022-08-21T13:20:00.785Z,28.48
2022-08-21T13:22:42.262Z,28.50
2022-08-21T13:25:13.924Z,28.42
2022-08-21T13:27:50.666Z,28.57
2022-08-21T13:30:23.414Z,28.51
2022-08-21T13:32:55.013Z,28.64
2022-08-21T13:35:27.870Z,28.47
2022-08-21T13:38:01.225Z,28.42
2022-08-21T13:40:41.070Z,28.67
2022-08-21T13:43:19.907Z,28.65
2022-08-21T13:45:55.081Z,28.50
2022-08-21T13:48:28.789Z,28.67
2022-08-21T13:51:04.359Z,28.60
2022-08-21T13:53:39.867Z,28.88
2022-08-21T13:56:15.727Z,28.82
2022-08-21T13:58:49.252Z,28.95
2022-08-21T14:01:26.132Z,28.95
2022-08-21T14:04:08.654Z,29.18
2022-08-21T14:06:40.516Z,30.01
2022-08-21T14:09:14.151Z,29.93
2022-08-21T14:11:44.837Z,30.12
2022-08-21T14:14:18.639Z,30.76
2022-08-21T14:16:55.123Z,30.69
2022-08-21T14:19:26.592Z,31.06
2022-08-21T14:22:02.429Z,31.29
2022-08-21T14:24:40.563Z,31.89
2022-08-21T14:27:12.332Z,32.22
2022-08-21T14:29:46.904Z,32.27
2022-08-21T14:32:25.359Z,32.42
2022-08-21T14:35:01.923Z,32.67
2022-08-21T14:37:37.770Z,32.52
2022-08-21T14:40:23.829Z,33.02
2022-08-21T14:42:59.869Z,33.18
2022-08-21T14:45:33.676Z,33.63
2022-08-21T14:48:08.548Z,34.10
2022-08-21T14:50:44.633Z,34.48
2022-08-21T14:53:15.538Z,34.69
2022-08-21T14:56:09.547Z,35.38
2022-08-21T14:58:43.813Z,36.10
2022-08-21T15:01:18.318Z,36.58
2022-08-21T15:03:50.212Z,36.91
2022-08-21T15:06:30.484Z,37.17
2022-08-21T15:09:03.743Z,37.56
2022-08-21T15:11:42.727Z,37.91
2022-08-21T15:14:15.720Z,38.26
2022-08-21T15:16:47.743Z,38.51
2022-08-21T15:19:23.466Z,38.83
2022-08-21T15:21:57.577Z,38.95
2022-08-21T15:24:28.352Z,39.17
2022-08-21T15:27:17.698Z,39.30
2022-08-21T15:29:49.820Z,39.77
2022-08-21T15:32:24.920Z,39.92
2022-08-21T15:35:00.316Z,40.13
2022-08-21T15:37:35.998Z,40.04
2022-08-21T15:40:10.670Z,40.35
2022-08-21T15:42:48.481Z,40.64
2022-08-21T15:45:19.154Z,40.99
2022-08-21T15:47:49.909Z,41.12
2022-08-21T15:50:24.150Z,41.42
2022-08-21T15:52:55.026Z,41.52
2022-08-21T15:55:27.017Z,41.72
2022-08-21T15:57:59.925Z,41.93
2022-08-21T16:00:32.707Z,42.14
2022-08-21T16:03:03.592Z,42.20
2022-08-21T16:05:34.339Z,42.37
2022-08-21T16:08:05.186Z,42.65
2022-08-21T16:10:38.697Z,42.80
2022-08-21T16:13:10.516Z,42.90
2022-08-21T16:15:41.411Z,42.72
2022-08-21T16:18:12.183Z,42.76
2022-08-21T16:20:42.991Z,42.69
2022-08-21T16:23:13.711Z,42.86
2022-08-21T16:25:44.468Z,42.90
2022-08-21T16:28:16.825Z,42.98
2022-08-21T16:30:48.434Z,43.08
2022-08-21T16:33:21.342Z,43.04
2022-08-21T16:35:52.108Z,43.03
2022-08-21T16:38:22.861Z,43.01
2022-08-21T16:40:53.573Z,43.02
2022-08-21T16:43:24.396Z,43.50
2022-08-21T16:45:59.519Z,43.31
2022-08-21T16:48:30.680Z,43.42
2022-08-21T16:51:01.645Z,43.49
2022-08-21T16:53:34.677Z,43.38
2022-08-21T16:56:07.486Z,43.57
2022-08-21T16:58:42.195Z,43.71
2022-08-21T17:01:16.425Z,43.45
2022-08-21T17:03:48.890Z,43.62
2022-08-21T17:06:19.629Z,43.31
2022-08-21T17:08:52.592Z,43.44
2022-08-21T17:11:36.528Z,43.72
2022-08-21T17:14:11.184Z,43.76
2022-08-21T17:16:43.561Z,43.62
2022-08-21T17:19:16.708Z,43.91
2022-08-21T17:21:48.844Z,43.82
2022-08-21T17:24:19.691Z,43.71
2022-08-21T17:26:50.370Z,44.02
2022-08-21T17:29:21.096Z,44.03
2022-08-21T17:31:51.857Z,44.02
2022-08-21T17:34:22.516Z,43.98
2022-08-21T17:36:53.368Z,44.10
2022-08-21T17:39:26.654Z,43.90
2022-08-21T17:41:58.264Z,43.82
2022-08-21T17:44:29.317Z,43.83
2022-08-21T17:47:00.022Z,44.18
2022-08-21T17:49:30.751Z,44.25
2022-08-21T17:52:01.512Z,44.34
2022-08-21T17:54:32.317Z,44.08
2022-08-21T17:57:04.270Z,44.05
2022-08-21T17:59:38.413Z,43.87
2022-08-21T18:02:17.472Z,44.18
2022-08-21T18:04:51.352Z,43.95
2022-08-21T18:07:32.398Z,44.26
2022-08-21T18:10:05.635Z,44.21
2022-08-21T18:12:36.524Z,44.26
2022-08-21T18:15:08.403Z,44.41
2022-08-21T18:17:41.080Z,44.51
2022-08-21T18:20:13.858Z,44.16
2022-08-21T18:22:49.630Z,44.51
2022-08-21T18:25:24.799Z,44.48
2022-08-21T18:27:55.715Z,44.35
2022-08-21T18:30:26.544Z,44.37
2022-08-21T18:32:57.380Z,44.49
2022-08-21T18:35:29.514Z,44.70
2022-08-21T18:38:05.445Z,44.85
2022-08-21T18:40:36.470Z,44.77
2022-08-21T18:43:10.005Z,44.65
2022-08-21T18:45:49.111Z,44.58
2022-08-21T18:48:21.174Z,44.89
2022-08-21T18:50:57.574Z,44.87
2022-08-21T18:53:32.190Z,45.00
2022-08-21T18:56:04.945Z,45.08
2022-08-21T18:58:36.657Z,45.30
2022-08-21T19:01:07.589Z,45.23
2022-08-21T19:03:41.089Z,45.29
2022-08-21T19:06:12.093Z,45.43
2022-08-21T19:08:45.565Z,45.36
2022-08-21T19:11:23.501Z,45.43
2022-08-21T19:13:54.969Z,45.50
2022-08-21T19:16:26.037Z,45.59
2022-08-21T19:18:58.229Z,45.74
2022-08-21T19:21:31.908Z,45.67
2022-08-21T19:26:55.844Z,45.92
2022-08-21T19:29:35.220Z,46.08
2022-08-21T19:32:23.959Z,46.25
2022-08-21T19:37:48.822Z,46.51
2022-08-21T19:40:19.904Z,46.55
2022-08-21T19:42:53.135Z,46.66
2022-08-21T19:45:26.527Z,46.77
2022-08-21T19:47:59.881Z,46.84
2022-08-21T19:50:33.669Z,46.99
2022-08-21T19:53:12.083Z,47.05
2022-08-21T19:55:48.274Z,47.19
2022-08-21T19:58:24.111Z,47.42
2022-08-21T20:00:54.800Z,47.47
2022-08-21T20:03:30.336Z,47.56
2022-08-21T20:06:02.980Z,47.64
2022-08-21T20:08:34.948Z,47.76
2022-08-21T20:11:10.620Z,47.81
2022-08-21T20:13:43.363Z,47.98
2022-08-21T20:16:15.325Z,48.06
2022-08-21T20:18:49.422Z,48.22
2022-08-21T20:21:23.281Z,48.22
2022-08-21T20:23:54.084Z,48.56
2022-08-21T20:26:24.962Z,48.45
2022-08-21T20:28:56.343Z,48.64
2022-08-21T20:31:27.753Z,48.52
2022-08-21T20:34:00.749Z,48.80
2022-08-21T20:36:34.213Z,48.68
2022-08-21T20:39:09.112Z,48.91
2022-08-21T20:44:35.465Z,48.86
2022-08-21T20:47:09.151Z,48.95
2022-08-21T20:49:43.683Z,49.07
2022-08-21T20:52:15.564Z,49.19
2022-08-21T20:54:48.829Z,49.12
2022-08-21T20:57:22.070Z,49.19
2022-08-21T20:59:55.985Z,49.26
2022-08-21T21:02:33.564Z,49.23
2022-08-21T21:05:08.029Z,49.30
2022-08-21T21:07:40.122Z,49.18
2022-08-21T21:10:14.971Z,49.30
2022-08-21T21:12:53.301Z,49.44
2022-08-21T21:15:30.202Z,49.55
2022-08-21T21:18:04.256Z,49.55
2022-08-21T21:20:40.787Z,49.60
2022-08-21T21:23:25.608Z,49.54
2022-08-21T21:26:01.022Z,49.63
2022-08-21T21:28:39.267Z,49.73
2022-08-21T21:31:18.320Z,49.97
2022-08-21T21:33:49.407Z,49.91
2022-08-21T21:36:24.412Z,49.88
2022-08-21T21:39:01.124Z,49.85
2022-08-21T21:41:33.957Z,49.89
2022-08-21T21:44:09.418Z,50.06
2022-08-21T21:46:48.865Z,49.90
2022-08-21T21:49:26.456Z,50.03
2022-08-21T21:52:03.699Z,50.20
2022-08-21T21:54:42.652Z,50.33
2022-08-21T21:57:17.586Z,50.42
2022-08-21T21:59:59.272Z,50.55
2022-08-21T22:02:33.851Z,50.47
2022-08-21T22:05:08.062Z,50.63
2022-08-21T22:07:45.166Z,50.79
2022-08-21T22:10:30.144Z,50.52
2022-08-21T22:15:59.793Z,50.99
2022-08-21T22:18:34.819Z,50.98
2022-08-21T22:21:07.022Z,51.19
2022-08-21T22:23:42.123Z,51.33
2022-08-21T22:26:19.339Z,51.39
2022-08-21T22:28:53.366Z,51.61
2022-08-21T22:31:29.229Z,51.42
2022-08-21T22:34:04.073Z,51.40
2022-08-21T22:36:36.651Z,51.68
2022-08-21T22:39:10.824Z,51.79
2022-08-21T22:41:42.728Z,51.74
2022-08-21T22:44:21.876Z,51.89
2022-08-21T22:46:55.476Z,51.95
2022-08-21T22:49:33.241Z,52.00
2022-08-21T22:52:12.922Z,52.15
2022-08-21T22:54:45.198Z,52.10
2022-08-21T22:57:30.623Z,52.24
2022-08-21T23:00:11.592Z,52.41
2022-08-21T23:02:44.586Z,52.23
2022-08-21T23:05:26.340Z,52.38
2022-08-21T23:08:01.153Z,52.40
2022-08-21T23:10:32.682Z,52.37
2022-08-21T23:13:06.350Z,52.37
2022-08-21T23:15:44.809Z,52.50
2022-08-21T23:18:19.179Z,52.32
2022-08-21T23:20:58.407Z,52.63
2022-08-21T23:23:30.861Z,52.59
2022-08-21T23:26:17.638Z,52.42
2022-08-21T23:28:56.314Z,52.63
2022-08-21T23:31:28.393Z,52.55
2022-08-21T23:34:15.709Z,52.48
2022-08-21T23:37:15.181Z,52.68
2022-08-21T23:39:51.663Z,52.57
2022-08-21T23:42:28.061Z,52.68
2022-08-21T23:45:13.732Z,52.73
2022-08-21T23:47:58.793Z,52.87
2022-08-21T23:50:31.278Z,52.69
2022-08-21T23:56:00.244Z,52.70
2022-08-21T23:58:41.814Z,52.86
